sensor_id;sensor_type;location;lat;lon;timestamp;P1;durP1;ratioP1;P2;durP2;ratioP2
9384;SDS011;4732;49.340;10.886;2023-06-26T03:01:04;10.23;;;7.72;;
9384;SDS011;4732;49.340;10.886;2023-06-26T03:03:29;9.52;;;8.18;;
9384;SDS011;4732;49.340;10.886;2023-06-26T03:05:55;9.00;;;8.13;;
9384;SDS011;4732;49.340;10.886;2023-06-26T03:08:21;8.65;;;7.75;;
9384;SDS011;4732;49.340;10.886;2023-06-26T03:10:47;8.68;;;7.88;;
9384;SDS011;4732;49.340;10.886;2023-06-26T03:13:12;9.07;;;8.18;;
9384;SDS011;4732;49.340;10.886;2023-06-26T03:15:38;8.50;;;7.60;;
9384;SDS011;4732;49.340;10.886;2023-06-26T03:18:03;8.45;;;7.60;;
9384;SDS011;4732;49.340;10.886;2023-06-26T03:20:29;11.60;;;7.55;;
9384;SDS011;4732;49.340;10.886;2023-06-26T03:22:54;8.15;;;6.97;;
9384;SDS011;4732;49.340;10.886;2023-06-26T03:25:20;8.82;;;7.57;;
9384;SDS011;4732;49.340;10.886;2023-06-26T03:27:45;8.15;;;7.30;;
9384;SDS011;4732;49.340;10.886;2023-06-26T03:30:11;8.20;;;7.40;;
9384;SDS011;4732;49.340;10.886;2023-06-26T03:32:37;8.80;;;7.90;;
9384;SDS011;4732;49.340;10.886;2023-06-26T03:35:02;8.50;;;7.60;;
9384;SDS011;4732;49.340;10.886;2023-06-26T03:37:28;10.60;;;8.10;;
9384;SDS011;4732;49.340;10.886;2023-06-26T03:39:54;9.77;;;7.65;;
9384;SDS011;4732;49.340;10.886;2023-06-26T03:42:19;9.98;;;8.23;;
9384;SDS011;4732;49.340;10.886;2023-06-26T03:44:45;8.40;;;7.55;;
9384;SDS011;4732;49.340;10.886;2023-06-26T03:47:10;8.18;;;7.38;;
9384;SDS011;4732;49.340;10.886;2023-06-26T03:49:36;9.90;;;6.90;;
9384;SDS011;4732;49.340;10.886;2023-06-26T03:52:01;9.07;;;7.63;;
9384;SDS011;4732;49.340;10.886;2023-06-26T03:54:27;11.55;;;7.68;;
9384;SDS011;4732;49.340;10.886;2023-06-26T03:56:52;10.68;;;7.95;;
9384;SDS011;4732;49.340;10.886;2023-06-26T03:59:18;8.57;;;6.88;;
9384;SDS011;4732;49.340;10.886;2023-06-26T04:01:43;8.75;;;7.80;;
9384;SDS011;4732;49.340;10.886;2023-06-26T04:04:09;9.07;;;8.10;;
9384;SDS011;4732;49.340;10.886;2023-06-26T04:06:34;9.10;;;7.78;;
9384;SDS011;4732;49.340;10.886;2023-06-26T04:09:00;8.77;;;7.93;;
9384;SDS011;4732;49.340;10.886;2023-06-26T04:11:25;9.13;;;7.68;;
9384;SDS011;4732;49.340;10.886;2023-06-26T04:13:51;8.63;;;7.72;;
9384;SDS011;4732;49.340;10.886;2023-06-26T04:16:18;9.55;;;8.18;;
9384;SDS011;4732;49.340;10.886;2023-06-26T04:18:45;9.73;;;8.73;;
9384;SDS011;4732;49.340;10.886;2023-06-26T04:21:12;11.05;;;8.68;;
9384;SDS011;4732;49.340;10.886;2023-06-26T04:23:38;9.90;;;8.90;;
9384;SDS011;4732;49.340;10.886;2023-06-26T04:26:05;9.60;;;8.40;;
9384;SDS011;4732;49.340;10.886;2023-06-26T04:28:31;9.95;;;8.60;;
9384;SDS011;4732;49.340;10.886;2023-06-26T04:31:06;10.02;;;8.60;;
9384;SDS011;4732;49.340;10.886;2023-06-26T04:33:35;10.90;;;8.40;;
9384;SDS011;4732;49.340;10.886;2023-06-26T04:36:02;9.07;;;8.13;;
9384;SDS011;4732;49.340;10.886;2023-06-26T04:38:29;9.15;;;8.25;;
9384;SDS011;4732;49.340;10.886;2023-06-26T04:40:55;10.85;;;9.73;;
9384;SDS011;4732;49.340;10.886;2023-06-26T04:43:21;10.40;;;9.00;;
9384;SDS011;4732;49.340;10.886;2023-06-26T04:45:46;10.88;;;9.77;;
9384;SDS011;4732;49.340;10.886;2023-06-26T04:48:12;10.00;;;9.00;;
9384;SDS011;4732;49.340;10.886;2023-06-26T04:50:38;10.90;;;9.80;;
9384;SDS011;4732;49.340;10.886;2023-06-26T04:53:04;10.10;;;9.10;;
9384;SDS011;4732;49.340;10.886;2023-06-26T04:55:30;9.95;;;8.88;;
9384;SDS011;4732;49.340;10.886;2023-06-26T04:57:56;11.65;;;9.77;;
9384;SDS011;4732;49.340;10.886;2023-06-26T05:00:21;10.18;;;9.18;;
9384;SDS011;4732;49.340;10.886;2023-06-26T05:02:47;11.10;;;9.57;;
9384;SDS011;4732;49.340;10.886;2023-06-26T05:05:13;11.43;;;9.75;;
9384;SDS011;4732;49.340;10.886;2023-06-26T05:07:38;11.32;;;9.98;;
9384;SDS011;4732;49.340;10.886;2023-06-26T05:10:06;10.82;;;9.73;;
9384;SDS011;4732;49.340;10.886;2023-06-26T05:12:32;12.00;;;10.10;;
9384;SDS011;4732;49.340;10.886;2023-06-26T05:14:58;13.02;;;10.63;;
9384;SDS011;4732;49.340;10.886;2023-06-26T05:17:24;11.32;;;10.07;;
9384;SDS011;4732;49.340;10.886;2023-06-26T05:19:49;13.98;;;9.73;;
9384;SDS011;4732;49.340;10.886;2023-06-26T05:22:15;11.35;;;9.52;;
9384;SDS011;4732;49.340;10.886;2023-06-26T05:24:42;10.60;;;9.60;;
9384;SDS011;4732;49.340;10.886;2023-06-26T05:27:11;11.20;;;10.10;;
9384;SDS011;4732;49.340;10.886;2023-06-26T05:29:44;9.98;;;9.00;;
9384;SDS011;4732;49.340;10.886;2023-06-26T05:32:10;10.90;;;9.80;;
9384;SDS011;4732;49.340;10.886;2023-06-26T05:34:37;10.57;;;9.55;;
9384;SDS011;4732;49.340;10.886;2023-06-26T05:37:04;11.35;;;10.25;;
9384;SDS011;4732;49.340;10.886;2023-06-26T05:39:31;12.23;;;10.80;;
9384;SDS011;4732;49.340;10.886;2023-06-26T05:41:57;12.35;;;9.98;;
9384;SDS011;4732;49.340;10.886;2023-06-26T05:44:23;13.50;;;10.63;;
9384;SDS011;4732;49.340;10.886;2023-06-26T05:46:49;11.10;;;10.02;;
9384;SDS011;4732;49.340;10.886;2023-06-26T05:49:14;10.73;;;9.68;;
9384;SDS011;4732;49.340;10.886;2023-06-26T05:51:40;11.05;;;9.95;;
9384;SDS011;4732;49.340;10.886;2023-06-26T05:54:06;11.40;;;10.30;;
9384;SDS011;4732;49.340;10.886;2023-06-26T05:56:32;10.27;;;9.27;;
9384;SDS011;4732;49.340;10.886;2023-06-26T05:58:58;11.25;;;10.07;;
9384;SDS011;4732;49.340;10.886;2023-06-26T06:01:23;13.93;;;9.73;;
9384;SDS011;4732;49.340;10.886;2023-06-26T06:03:49;10.57;;;9.50;;
9384;SDS011;4732;49.340;10.886;2023-06-26T06:06:15;9.65;;;8.63;;
9384;SDS011;4732;49.340;10.886;2023-06-26T06:08:41;10.02;;;9.07;;
9384;SDS011;4732;49.340;10.886;2023-06-26T06:11:06;9.45;;;8.55;;
9384;SDS011;4732;49.340;10.886;2023-06-26T06:13:32;9.20;;;8.35;;
9384;SDS011;4732;49.340;10.886;2023-06-26T06:15:57;11.77;;;8.40;;
9384;SDS011;4732;49.340;10.886;2023-06-26T06:18:23;9.77;;;8.05;;
9384;SDS011;4732;49.340;10.886;2023-06-26T06:20:49;9.82;;;8.45;;
9384;SDS011;4732;49.340;10.886;2023-06-26T06:23:14;8.60;;;7.65;;
9384;SDS011;4732;49.340;10.886;2023-06-26T06:25:40;9.35;;;8.00;;
9384;SDS011;4732;49.340;10.886;2023-06-26T06:28:05;9.18;;;8.27;;
9384;SDS011;4732;49.340;10.886;2023-06-26T06:30:31;7.63;;;6.93;;
9384;SDS011;4732;49.340;10.886;2023-06-26T06:32:57;10.05;;;7.82;;
9384;SDS011;4732;49.340;10.886;2023-06-26T06:35:23;7.43;;;6.72;;
9384;SDS011;4732;49.340;10.886;2023-06-26T06:37:49;8.88;;;7.97;;
9384;SDS011;4732;49.340;10.886;2023-06-26T06:40:14;9.13;;;7.22;;
9384;SDS011;4732;49.340;10.886;2023-06-26T06:42:40;8.63;;;7.30;;
9384;SDS011;4732;49.340;10.886;2023-06-26T06:45:06;8.25;;;7.32;;
9384;SDS011;4732;49.340;10.886;2023-06-26T06:47:32;7.72;;;6.93;;
9384;SDS011;4732;49.340;10.886;2023-06-26T06:49:58;10.18;;;7.18;;
9384;SDS011;4732;49.340;10.886;2023-06-26T06:52:26;13.73;;;7.03;;
9384;SDS011;4732;49.340;10.886;2023-06-26T06:54:52;7.10;;;6.40;;
9384;SDS011;4732;49.340;10.886;2023-06-26T06:57:24;9.75;;;6.68;;
9384;SDS011;4732;49.340;10.886;2023-06-26T06:59:50;8.07;;;6.68;;
9384;SDS011;4732;49.340;10.886;2023-06-26T07:02:19;7.43;;;6.63;;
9384;SDS011;4732;49.340;10.886;2023-06-26T07:04:44;8.20;;;6.18;;
9384;SDS011;4732;49.340;10.886;2023-06-26T07:07:10;6.82;;;5.72;;
9384;SDS011;4732;49.340;10.886;2023-06-26T07:09:38;7.28;;;6.55;;
9384;SDS011;4732;49.340;10.886;2023-06-26T07:12:04;8.38;;;6.18;;
9384;SDS011;4732;49.340;10.886;2023-06-26T07:14:30;6.90;;;5.45;;
9384;SDS011;4732;49.340;10.886;2023-06-26T07:16:55;10.48;;;6.80;;
9384;SDS011;4732;49.340;10.886;2023-06-26T07:19:21;6.90;;;6.20;;
9384;SDS011;4732;49.340;10.886;2023-06-26T07:21:46;8.38;;;6.38;;
9384;SDS011;4732;49.340;10.886;2023-06-26T07:24:12;6.82;;;6.20;;
9384;SDS011;4732;49.340;10.886;2023-06-26T07:26:37;6.80;;;6.13;;
9384;SDS011;4732;49.340;10.886;2023-06-26T07:29:03;6.43;;;5.82;;
9384;SDS011;4732;49.340;10.886;2023-06-26T07:31:29;6.78;;;6.00;;
9384;SDS011;4732;49.340;10.886;2023-06-26T07:33:54;7.65;;;6.85;;
9384;SDS011;4732;49.340;10.886;2023-06-26T07:36:20;7.55;;;6.40;;
9384;SDS011;4732;49.340;10.886;2023-06-26T07:38:45;7.03;;;6.35;;
9384;SDS011;4732;49.340;10.886;2023-06-26T07:41:11;10.45;;;6.40;;
9384;SDS011;4732;49.340;10.886;2023-06-26T07:43:36;8.80;;;7.03;;
9384;SDS011;4732;49.340;10.886;2023-06-26T07:46:02;7.25;;;6.25;;
9384;SDS011;4732;49.340;10.886;2023-06-26T07:48:27;9.90;;;6.25;;
9384;SDS011;4732;49.340;10.886;2023-06-26T07:50:53;9.80;;;6.10;;
9384;SDS011;4732;49.340;10.886;2023-06-26T07:53:18;7.22;;;6.53;;
9384;SDS011;4732;49.340;10.886;2023-06-26T07:55:44;7.45;;;6.60;;
9384;SDS011;4732;49.340;10.886;2023-06-26T07:58:10;9.82;;;6.05;;
9384;SDS011;4732;49.340;10.886;2023-06-26T08:00:35;7.30;;;6.60;;
9384;SDS011;4732;49.340;10.886;2023-06-26T08:03:01;7.97;;;6.20;;
9384;SDS011;4732;49.340;10.886;2023-06-26T08:05:27;6.88;;;6.25;;
9384;SDS011;4732;49.340;10.886;2023-06-26T08:07:52;6.75;;;5.70;;
9384;SDS011;4732;49.340;10.886;2023-06-26T08:10:18;7.32;;;6.63;;
9384;SDS011;4732;49.340;10.886;2023-06-26T08:12:43;8.50;;;6.65;;
9384;SDS011;4732;49.340;10.886;2023-06-26T08:15:10;7.55;;;6.85;;
9384;SDS011;4732;49.340;10.886;2023-06-26T08:17:37;7.00;;;6.40;;
9384;SDS011;4732;49.340;10.886;2023-06-26T08:20:03;10.70;;;7.07;;
9384;SDS011;4732;49.340;10.886;2023-06-26T08:22:29;7.15;;;6.40;;
9384;SDS011;4732;49.340;10.886;2023-06-26T08:24:55;7.28;;;6.32;;
9384;SDS011;4732;49.340;10.886;2023-06-26T08:27:21;6.82;;;6.18;;
9384;SDS011;4732;49.340;10.886;2023-06-26T08:29:46;10.27;;;6.75;;
9384;SDS011;4732;49.340;10.886;2023-06-26T08:32:12;7.72;;;6.53;;
9384;SDS011;4732;49.340;10.886;2023-06-26T08:34:37;7.13;;;6.43;;
9384;SDS011;4732;49.340;10.886;2023-06-26T08:37:03;7.18;;;6.47;;
9384;SDS011;4732;49.340;10.886;2023-06-26T08:39:28;6.97;;;6.28;;
9384;SDS011;4732;49.340;10.886;2023-06-26T08:41:54;9.13;;;6.50;;
9384;SDS011;4732;49.340;10.886;2023-06-26T08:44:19;10.38;;;7.05;;
9384;SDS011;4732;49.340;10.886;2023-06-26T08:46:49;8.18;;;6.80;;
9384;SDS011;4732;49.340;10.886;2023-06-26T08:49:20;8.15;;;6.65;;
9384;SDS011;4732;49.340;10.886;2023-06-26T08:51:58;7.70;;;6.90;;
9384;SDS011;4732;49.340;10.886;2023-06-26T08:54:31;7.03;;;6.22;;
9384;SDS011;4732;49.340;10.886;2023-06-26T08:57:01;11.20;;;6.82;;
9384;SDS011;4732;49.340;10.886;2023-06-26T08:59:27;7.03;;;6.32;;
9384;SDS011;4732;49.340;10.886;2023-06-26T09:01:53;7.82;;;6.85;;
9384;SDS011;4732;49.340;10.886;2023-06-26T09:04:19;7.43;;;6.72;;
9384;SDS011;4732;49.340;10.886;2023-06-26T09:06:44;7.93;;;6.93;;
9384;SDS011;4732;49.340;10.886;2023-06-26T09:09:10;8.85;;;6.60;;
9384;SDS011;4732;49.340;10.886;2023-06-26T09:11:35;7.45;;;6.38;;
9384;SDS011;4732;49.340;10.886;2023-06-26T09:14:01;8.15;;;6.32;;
9384;SDS011;4732;49.340;10.886;2023-06-26T09:16:30;7.85;;;7.05;;
9384;SDS011;4732;49.340;10.886;2023-06-26T09:18:56;7.82;;;6.80;;
9384;SDS011;4732;49.340;10.886;2023-06-26T09:21:21;7.95;;;6.68;;
9384;SDS011;4732;49.340;10.886;2023-06-26T09:23:49;11.10;;;7.30;;
9384;SDS011;4732;49.340;10.886;2023-06-26T09:26:15;8.82;;;7.22;;
9384;SDS011;4732;49.340;10.886;2023-06-26T09:28:42;7.53;;;6.63;;
9384;SDS011;4732;49.340;10.886;2023-06-26T09:31:08;7.63;;;6.53;;
9384;SDS011;4732;49.340;10.886;2023-06-26T09:33:35;7.75;;;6.90;;
9384;SDS011;4732;49.340;10.886;2023-06-26T09:36:05;7.70;;;6.50;;
9384;SDS011;4732;49.340;10.886;2023-06-26T09:38:37;8.30;;;7.13;;
9384;SDS011;4732;49.340;10.886;2023-06-26T09:41:02;10.70;;;6.78;;
9384;SDS011;4732;49.340;10.886;2023-06-26T09:43:28;7.75;;;7.03;;
9384;SDS011;4732;49.340;10.886;2023-06-26T09:45:56;10.93;;;7.03;;
9384;SDS011;4732;49.340;10.886;2023-06-26T09:48:21;8.15;;;6.65;;
9384;SDS011;4732;49.340;10.886;2023-06-26T09:50:47;7.00;;;6.22;;
9384;SDS011;4732;49.340;10.886;2023-06-26T09:53:13;9.63;;;6.75;;
9384;SDS011;4732;49.340;10.886;2023-06-26T09:55:38;8.98;;;6.80;;
9384;SDS011;4732;49.340;10.886;2023-06-26T09:58:05;8.13;;;6.28;;
9384;SDS011;4732;49.340;10.886;2023-06-26T10:00:31;6.68;;;6.07;;
9384;SDS011;4732;49.340;10.886;2023-06-26T10:02:58;6.93;;;6.22;;
9384;SDS011;4732;49.340;10.886;2023-06-26T10:05:24;6.82;;;6.22;;
9384;SDS011;4732;49.340;10.886;2023-06-26T10:07:49;7.45;;;5.93;;
9384;SDS011;4732;49.340;10.886;2023-06-26T10:10:16;7.65;;;6.15;;
9384;SDS011;4732;49.340;10.886;2023-06-26T10:12:42;6.43;;;5.82;;
9384;SDS011;4732;49.340;10.886;2023-06-26T10:15:10;7.07;;;6.00;;
9384;SDS011;4732;49.340;10.886;2023-06-26T10:17:38;7.25;;;6.20;;
9384;SDS011;4732;49.340;10.886;2023-06-26T10:20:07;6.75;;;6.15;;
9384;SDS011;4732;49.340;10.886;2023-06-26T10:22:36;7.20;;;6.50;;
9384;SDS011;4732;49.340;10.886;2023-06-26T10:25:06;8.07;;;6.70;;
9384;SDS011;4732;49.340;10.886;2023-06-26T10:27:35;7.53;;;6.20;;
9384;SDS011;4732;49.340;10.886;2023-06-26T10:30:04;6.93;;;6.22;;
9384;SDS011;4732;49.340;10.886;2023-06-26T10:32:34;6.65;;;5.95;;
9384;SDS011;4732;49.340;10.886;2023-06-26T10:35:01;7.00;;;6.30;;
9384;SDS011;4732;49.340;10.886;2023-06-26T10:37:41;6.90;;;6.20;;
9384;SDS011;4732;49.340;10.886;2023-06-26T10:40:10;8.32;;;5.85;;
9384;SDS011;4732;49.340;10.886;2023-06-26T10:42:37;6.35;;;5.60;;
9384;SDS011;4732;49.340;10.886;2023-06-26T10:45:11;8.00;;;5.97;;
9384;SDS011;4732;49.340;10.886;2023-06-26T10:47:39;6.10;;;5.50;;
9384;SDS011;4732;49.340;10.886;2023-06-26T10:50:25;6.70;;;6.00;;
9384;SDS011;4732;49.340;10.886;2023-06-26T10:56:04;6.10;;;5.50;;
9384;SDS011;4732;49.340;10.886;2023-06-26T11:03:39;6.75;;;5.13;;
9384;SDS011;4732;49.340;10.886;2023-06-26T11:06:24;5.70;;;5.22;;
9384;SDS011;4732;49.340;10.886;2023-06-26T11:08:50;5.82;;;5.32;;
9384;SDS011;4732;49.340;10.886;2023-06-26T11:11:20;6.22;;;5.45;;
9384;SDS011;4732;49.340;10.886;2023-06-26T11:13:47;6.40;;;5.15;;
9384;SDS011;4732;49.340;10.886;2023-06-26T11:16:13;7.82;;;5.18;;
9384;SDS011;4732;49.340;10.886;2023-06-26T11:18:39;6.85;;;4.93;;
9384;SDS011;4732;49.340;10.886;2023-06-26T11:21:09;6.95;;;5.07;;
9384;SDS011;4732;49.340;10.886;2023-06-26T11:23:37;6.72;;;5.53;;
9384;SDS011;4732;49.340;10.886;2023-06-26T11:26:15;6.75;;;5.15;;
9384;SDS011;4732;49.340;10.886;2023-06-26T11:28:54;5.30;;;4.80;;
9384;SDS011;4732;49.340;10.886;2023-06-26T11:31:27;5.60;;;5.10;;
9384;SDS011;4732;49.340;10.886;2023-06-26T11:33:57;5.25;;;4.75;;
9384;SDS011;4732;49.340;10.886;2023-06-26T11:36:24;5.00;;;4.60;;
9384;SDS011;4732;49.340;10.886;2023-06-26T11:38:57;8.40;;;4.93;;
9384;SDS011;4732;49.340;10.886;2023-06-26T11:41:26;6.15;;;4.40;;
9384;SDS011;4732;49.340;10.886;2023-06-26T11:43:54;6.25;;;4.85;;
9384;SDS011;4732;49.340;10.886;2023-06-26T11:46:21;5.90;;;4.93;;
9384;SDS011;4732;49.340;10.886;2023-06-26T11:48:47;5.88;;;4.78;;
9384;SDS011;4732;49.340;10.886;2023-06-26T11:51:14;5.00;;;4.60;;
9384;SDS011;4732;49.340;10.886;2023-06-26T11:53:40;5.15;;;4.72;;
9384;SDS011;4732;49.340;10.886;2023-06-26T11:56:08;5.38;;;4.80;;
9384;SDS011;4732;49.340;10.886;2023-06-26T11:58:54;4.10;;;3.70;;
9384;SDS011;4732;49.340;10.886;2023-06-26T12:01:31;4.55;;;4.15;;
9384;SDS011;4732;49.340;10.886;2023-06-26T12:03:59;6.30;;;4.20;;
9384;SDS011;4732;49.340;10.886;2023-06-26T12:06:27;4.45;;;4.05;;
9384;SDS011;4732;49.340;10.886;2023-06-26T12:08:53;4.47;;;4.07;;
9384;SDS011;4732;49.340;10.886;2023-06-26T12:11:20;8.93;;;4.45;;
9384;SDS011;4732;49.340;10.886;2023-06-26T12:13:48;4.50;;;4.10;;
9384;SDS011;4732;49.340;10.886;2023-06-26T12:16:14;4.65;;;4.20;;
9384;SDS011;4732;49.340;10.886;2023-06-26T12:18:40;5.18;;;4.78;;
9384;SDS011;4732;49.340;10.886;2023-06-26T12:21:06;7.55;;;4.85;;
9384;SDS011;4732;49.340;10.886;2023-06-26T12:23:32;5.13;;;4.60;;
9384;SDS011;4732;49.340;10.886;2023-06-26T12:25:58;5.20;;;4.70;;
9384;SDS011;4732;49.340;10.886;2023-06-26T12:28:24;4.63;;;4.22;;
9384;SDS011;4732;49.340;10.886;2023-06-26T12:33:38;5.07;;;4.68;;
9384;SDS011;4732;49.340;10.886;2023-06-26T12:36:04;6.22;;;4.80;;
9384;SDS011;4732;49.340;10.886;2023-06-26T12:38:33;6.13;;;5.15;;
9384;SDS011;4732;49.340;10.886;2023-06-26T12:40:58;8.82;;;5.15;;
9384;SDS011;4732;49.340;10.886;2023-06-26T12:43:25;6.22;;;5.05;;
9384;SDS011;4732;49.340;10.886;2023-06-26T12:45:57;5.75;;;4.97;;
9384;SDS011;4732;49.340;10.886;2023-06-26T12:48:36;5.53;;;5.03;;
9384;SDS011;4732;49.340;10.886;2023-06-26T12:51:16;6.60;;;5.22;;
9384;SDS011;4732;49.340;10.886;2023-06-26T12:53:42;6.00;;;5.18;;
9384;SDS011;4732;49.340;10.886;2023-06-26T12:56:08;5.88;;;5.38;;
9384;SDS011;4732;49.340;10.886;2023-06-26T12:58:35;5.88;;;5.07;;
9384;SDS011;4732;49.340;10.886;2023-06-26T13:01:06;5.70;;;5.22;;
9384;SDS011;4732;49.340;10.886;2023-06-26T13:03:45;6.03;;;5.25;;
9384;SDS011;4732;49.340;10.886;2023-06-26T13:06:10;6.15;;;5.55;;
9384;SDS011;4732;49.340;10.886;2023-06-26T13:08:37;5.85;;;5.13;;
9384;SDS011;4732;49.340;10.886;2023-06-26T13:11:02;8.73;;;5.88;;
9384;SDS011;4732;49.340;10.886;2023-06-26T13:13:28;5.90;;;5.28;;
9384;SDS011;4732;49.340;10.886;2023-06-26T13:15:53;6.10;;;5.50;;
9384;SDS011;4732;49.340;10.886;2023-06-26T13:18:19;7.03;;;5.35;;
9384;SDS011;4732;49.340;10.886;2023-06-26T13:20:44;7.32;;;5.40;;
9384;SDS011;4732;49.340;10.886;2023-06-26T13:23:10;8.38;;;5.30;;
9384;SDS011;4732;49.340;10.886;2023-06-26T13:25:36;7.53;;;5.53;;
9384;SDS011;4732;49.340;10.886;2023-06-26T13:28:01;6.25;;;5.60;;
9384;SDS011;4732;49.340;10.886;2023-06-26T13:30:27;7.28;;;5.80;;
9384;SDS011;4732;49.340;10.886;2023-06-26T13:32:55;12.15;;;5.60;;
9384;SDS011;4732;49.340;10.886;2023-06-26T13:35:23;14.50;;;6.13;;
9384;SDS011;4732;49.340;10.886;2023-06-26T13:37:49;8.10;;;5.72;;
9384;SDS011;4732;49.340;10.886;2023-06-26T13:40:14;6.63;;;5.57;;
9384;SDS011;4732;49.340;10.886;2023-06-26T13:42:40;6.30;;;5.20;;
9384;SDS011;4732;49.340;10.886;2023-06-26T13:45:06;7.90;;;5.88;;
9384;SDS011;4732;49.340;10.886;2023-06-26T13:47:32;6.10;;;5.40;;
9384;SDS011;4732;49.340;10.886;2023-06-26T13:49:59;14.95;;;6.07;;
9384;SDS011;4732;49.340;10.886;2023-06-26T13:52:24;6.25;;;5.75;;
9384;SDS011;4732;49.340;10.886;2023-06-26T13:54:50;6.35;;;5.70;;
9384;SDS011;4732;49.340;10.886;2023-06-26T13:57:16;6.13;;;5.63;;
9384;SDS011;4732;49.340;10.886;2023-06-26T13:59:42;7.78;;;5.80;;
9384;SDS011;4732;49.340;10.886;2023-06-26T14:02:07;8.25;;;5.88;;
9384;SDS011;4732;49.340;10.886;2023-06-26T14:04:33;9.55;;;5.65;;
9384;SDS011;4732;49.340;10.886;2023-06-26T14:06:59;16.95;;;6.43;;
9384;SDS011;4732;49.340;10.886;2023-06-26T14:09:24;6.70;;;6.00;;
9384;SDS011;4732;49.340;10.886;2023-06-26T14:11:50;11.43;;;6.10;;
9384;SDS011;4732;49.340;10.886;2023-06-26T14:14:15;9.82;;;5.93;;
9384;SDS011;4732;49.340;10.886;2023-06-26T14:16:41;8.20;;;6.30;;
9384;SDS011;4732;49.340;10.886;2023-06-26T14:19:07;7.07;;;6.07;;
9384;SDS011;4732;49.340;10.886;2023-06-26T14:21:33;7.15;;;6.30;;
9384;SDS011;4732;49.340;10.886;2023-06-26T14:23:59;7.95;;;6.10;;
9384;SDS011;4732;49.340;10.886;2023-06-26T14:26:25;7.63;;;6.32;;
9384;SDS011;4732;49.340;10.886;2023-06-26T14:28:50;11.43;;;6.35;;
9384;SDS011;4732;49.340;10.886;2023-06-26T14:31:16;7.57;;;6.72;;
9384;SDS011;4732;49.340;10.886;2023-06-26T14:33:42;8.68;;;6.43;;
9384;SDS011;4732;49.340;10.886;2023-06-26T14:36:07;7.40;;;6.55;;
9384;SDS011;4732;49.340;10.886;2023-06-26T14:38:33;11.05;;;6.82;;
9384;SDS011;4732;49.340;10.886;2023-06-26T14:40:58;9.63;;;7.18;;
9384;SDS011;4732;49.340;10.886;2023-06-26T14:43:24;11.48;;;7.25;;
9384;SDS011;4732;49.340;10.886;2023-06-26T14:45:49;7.65;;;6.82;;
9384;SDS011;4732;49.340;10.886;2023-06-26T14:48:15;7.30;;;6.60;;
9384;SDS011;4732;49.340;10.886;2023-06-26T14:50:41;13.95;;;6.80;;
9384;SDS011;4732;49.340;10.886;2023-06-26T14:53:06;7.63;;;6.50;;
9384;SDS011;4732;49.340;10.886;2023-06-26T14:55:31;7.35;;;6.63;;
9384;SDS011;4732;49.340;10.886;2023-06-26T14:57:57;9.45;;;7.10;;
9384;SDS011;4732;49.340;10.886;2023-06-26T15:00:26;8.60;;;6.60;;
9384;SDS011;4732;49.340;10.886;2023-06-26T15:02:52;10.48;;;6.90;;
9384;SDS011;4732;49.340;10.886;2023-06-26T15:05:19;7.82;;;6.95;;
9384;SDS011;4732;49.340;10.886;2023-06-26T15:07:46;8.02;;;7.32;;
9384;SDS011;4732;49.340;10.886;2023-06-26T15:10:11;8.98;;;7.10;;
9384;SDS011;4732;49.340;10.886;2023-06-26T15:12:37;7.22;;;6.63;;
9384;SDS011;4732;49.340;10.886;2023-06-26T15:15:03;8.40;;;7.25;;
9384;SDS011;4732;49.340;10.886;2023-06-26T15:17:29;11.20;;;6.88;;
9384;SDS011;4732;49.340;10.886;2023-06-26T15:19:54;10.63;;;7.20;;
9384;SDS011;4732;49.340;10.886;2023-06-26T15:22:21;8.68;;;6.95;;
9384;SDS011;4732;49.340;10.886;2023-06-26T15:24:47;8.95;;;6.60;;
9384;SDS011;4732;49.340;10.886;2023-06-26T15:27:13;9.48;;;7.00;;
9384;SDS011;4732;49.340;10.886;2023-06-26T15:29:38;11.32;;;7.22;;
9384;SDS011;4732;49.340;10.886;2023-06-26T15:32:04;7.90;;;6.97;;
9384;SDS011;4732;49.340;10.886;2023-06-26T15:34:30;8.45;;;7.38;;
9384;SDS011;4732;49.340;10.886;2023-06-26T15:36:55;9.93;;;6.72;;
9384;SDS011;4732;49.340;10.886;2023-06-26T15:39:21;10.43;;;7.25;;
9384;SDS011;4732;49.340;10.886;2023-06-26T15:41:46;8.65;;;7.13;;
9384;SDS011;4732;49.340;10.886;2023-06-26T15:44:12;10.55;;;6.90;;
9384;SDS011;4732;49.340;10.886;2023-06-26T15:46:38;8.18;;;6.82;;
9384;SDS011;4732;49.340;10.886;2023-06-26T15:49:03;9.40;;;7.03;;
9384;SDS011;4732;49.340;10.886;2023-06-26T15:51:29;21.83;;;7.10;;
9384;SDS011;4732;49.340;10.886;2023-06-26T15:53:55;11.73;;;7.10;;
9384;SDS011;4732;49.340;10.886;2023-06-26T15:56:22;9.32;;;6.57;;
9384;SDS011;4732;49.340;10.886;2023-06-26T15:58:47;15.50;;;6.88;;
9384;SDS011;4732;49.340;10.886;2023-06-26T16:01:13;9.48;;;7.50;;
9384;SDS011;4732;49.340;10.886;2023-06-26T16:03:39;7.75;;;6.97;;
9384;SDS011;4732;49.340;10.886;2023-06-26T16:06:05;7.43;;;6.72;;
9384;SDS011;4732;49.340;10.886;2023-06-26T16:08:31;8.40;;;6.78;;
9384;SDS011;4732;49.340;10.886;2023-06-26T16:10:56;8.05;;;7.25;;
9384;SDS011;4732;49.340;10.886;2023-06-26T16:13:22;9.32;;;6.72;;
9384;SDS011;4732;49.340;10.886;2023-06-26T16:15:48;10.23;;;7.15;;
9384;SDS011;4732;49.340;10.886;2023-06-26T16:18:14;10.02;;;7.28;;
9384;SDS011;4732;49.340;10.886;2023-06-26T16:20:40;7.97;;;7.18;;
9384;SDS011;4732;49.340;10.886;2023-06-26T16:23:06;9.80;;;6.47;;
9384;SDS011;4732;49.340;10.886;2023-06-26T16:25:32;10.63;;;6.50;;
9384;SDS011;4732;49.340;10.886;2023-06-26T16:27:57;8.77;;;6.90;;
9384;SDS011;4732;49.340;10.886;2023-06-26T16:30:23;9.77;;;6.80;;
9384;SDS011;4732;49.340;10.886;2023-06-26T16:32:48;8.73;;;6.65;;
9384;SDS011;4732;49.340;10.886;2023-06-26T16:35:14;13.50;;;6.40;;
9384;SDS011;4732;49.340;10.886;2023-06-26T16:37:39;10.85;;;6.10;;
9384;SDS011;4732;49.340;10.886;2023-06-26T16:40:05;8.13;;;6.63;;
9384;SDS011;4732;49.340;10.886;2023-06-26T16:42:31;9.73;;;5.80;;
9384;SDS011;4732;49.340;10.886;2023-06-26T16:44:56;7.20;;;5.72;;
9384;SDS011;4732;49.340;10.886;2023-06-26T16:47:22;7.38;;;5.18;;
9384;SDS011;4732;49.340;10.886;2023-06-26T16:49:47;7.97;;;5.30;;
9384;SDS011;4732;49.340;10.886;2023-06-26T16:52:13;6.88;;;4.85;;
9384;SDS011;4732;49.340;10.886;2023-06-26T16:54:39;6.00;;;4.72;;
9384;SDS011;4732;49.340;10.886;2023-06-26T16:57:04;7.60;;;4.78;;
9384;SDS011;4732;49.340;10.886;2023-06-26T16:59:30;7.38;;;4.43;;
9384;SDS011;4732;49.340;10.886;2023-06-26T17:01:55;5.15;;;4.22;;
9384;SDS011;4732;49.340;10.886;2023-06-26T17:04:25;5.25;;;4.35;;
9384;SDS011;4732;49.340;10.886;2023-06-26T17:06:52;8.07;;;4.50;;
9384;SDS011;4732;49.340;10.886;2023-06-26T17:09:17;5.20;;;4.15;;
9384;SDS011;4732;49.340;10.886;2023-06-26T17:11:43;5.75;;;4.13;;
9384;SDS011;4732;49.340;10.886;2023-06-26T17:14:08;5.85;;;3.95;;
9384;SDS011;4732;49.340;10.886;2023-06-26T17:16:34;6.65;;;4.65;;
9384;SDS011;4732;49.340;10.886;2023-06-26T17:18:59;9.48;;;4.15;;
9384;SDS011;4732;49.340;10.886;2023-06-26T17:21:25;10.98;;;4.45;;
9384;SDS011;4732;49.340;10.886;2023-06-26T17:23:51;9.13;;;4.40;;
9384;SDS011;4732;49.340;10.886;2023-06-26T17:26:16;6.68;;;4.30;;
9384;SDS011;4732;49.340;10.886;2023-06-26T17:28:43;9.15;;;4.30;;
9384;SDS011;4732;49.340;10.886;2023-06-26T17:31:09;9.77;;;4.85;;
9384;SDS011;4732;49.340;10.886;2023-06-26T17:33:35;6.40;;;4.45;;
9384;SDS011;4732;49.340;10.886;2023-06-26T17:36:00;6.28;;;4.90;;
9384;SDS011;4732;49.340;10.886;2023-06-26T17:38:26;8.60;;;5.10;;
9384;SDS011;4732;49.340;10.886;2023-06-26T17:40:53;11.60;;;5.50;;
9384;SDS011;4732;49.340;10.886;2023-06-26T17:43:19;8.43;;;5.45;;
9384;SDS011;4732;49.340;10.886;2023-06-26T17:45:44;7.82;;;5.78;;
9384;SDS011;4732;49.340;10.886;2023-06-26T17:48:10;9.38;;;6.20;;
9384;SDS011;4732;49.340;10.886;2023-06-26T17:50:35;6.68;;;6.07;;
9384;SDS011;4732;49.340;10.886;2023-06-26T17:53:01;12.13;;;6.78;;
9384;SDS011;4732;49.340;10.886;2023-06-26T17:55:27;12.43;;;6.70;;
9384;SDS011;4732;49.340;10.886;2023-06-26T17:57:53;11.57;;;6.93;;
9384;SDS011;4732;49.340;10.886;2023-06-26T18:00:19;8.38;;;6.45;;
9384;SDS011;4732;49.340;10.886;2023-06-26T18:02:45;11.10;;;6.38;;
9384;SDS011;4732;49.340;10.886;2023-06-26T18:05:10;10.10;;;6.53;;